sensor_id;sensor_type;location;lat;lon;timestamp;temperature;humidity
49132;DHT22;35149;51.196;6.204;2023-06-26T00:01:56;24.90;53.70
49132;DHT22;35149;51.196;6.204;2023-06-26T00:04:24;24.90;53.80
49132;DHT22;35149;51.196;6.204;2023-06-26T00:06:51;24.90;53.90
49132;DHT22;35149;51.196;6.204;2023-06-26T00:09:17;24.80;53.90
49132;DHT22;35149;51.196;6.204;2023-06-26T00:11:55;24.80;54.00
49132;DHT22;35149;51.196;6.204;2023-06-26T00:14:26;24.70;53.90
49132;DHT22;35149;51.196;6.204;2023-06-26T00:16:57;24.70;54.10
49132;DHT22;35149;51.196;6.204;2023-06-26T00:19:26;24.70;54.00
49132;DHT22;35149;51.196;6.204;2023-06-26T00:21:55;24.60;54.10
49132;DHT22;35149;51.196;6.204;2023-06-26T00:24:23;24.50;54.20
49132;DHT22;35149;51.196;6.204;2023-06-26T00:26:53;24.50;54.30
49132;DHT22;35149;51.196;6.204;2023-06-26T00:29:22;24.50;54.40
49132;DHT22;35149;51.196;6.204;2023-06-26T00:31:48;24.40;54.60
49132;DHT22;35149;51.196;6.204;2023-06-26T00:34:20;24.40;54.60
49132;DHT22;35149;51.196;6.204;2023-06-26T00:36:49;24.40;54.70
49132;DHT22;35149;51.196;6.204;2023-06-26T00:39:23;24.30;54.70
49132;DHT22;35149;51.196;6.204;2023-06-26T00:41:52;24.30;54.70
49132;DHT22;35149;51.196;6.204;2023-06-26T00:44:22;24.30;54.90
49132;DHT22;35149;51.196;6.204;2023-06-26T00:46:52;24.20;55.00
49132;DHT22;35149;51.196;6.204;2023-06-26T00:49:23;24.20;55.10
49132;DHT22;35149;51.196;6.204;2023-06-26T00:51:52;24.20;55.20
49132;DHT22;35149;51.196;6.204;2023-06-26T00:54:24;24.10;55.30
49132;DHT22;35149;51.196;6.204;2023-06-26T00:56:52;24.10;55.20
49132;DHT22;35149;51.196;6.204;2023-06-26T00:59:18;24.10;55.30
49132;DHT22;35149;51.196;6.204;2023-06-26T01:01:48;24.00;55.40
49132;DHT22;35149;51.196;6.204;2023-06-26T01:04:17;24.00;55.50
49132;DHT22;35149;51.196;6.204;2023-06-26T01:06:56;24.00;55.70
49132;DHT22;35149;51.196;6.204;2023-06-26T01:09:24;24.00;55.60
49132;DHT22;35149;51.196;6.204;2023-06-26T01:11:51;24.00;55.60
49132;DHT22;35149;51.196;6.204;2023-06-26T01:14:20;23.90;55.60
49132;DHT22;35149;51.196;6.204;2023-06-26T01:16:50;23.90;56.10
49132;DHT22;35149;51.196;6.204;2023-06-26T01:19:27;23.90;56.20
49132;DHT22;35149;51.196;6.204;2023-06-26T01:22:06;23.90;56.70
49132;DHT22;35149;51.196;6.204;2023-06-26T01:24:48;23.90;56.60
49132;DHT22;35149;51.196;6.204;2023-06-26T01:27:20;23.90;56.60
49132;DHT22;35149;51.196;6.204;2023-06-26T01:29:50;23.90;56.30
49132;DHT22;35149;51.196;6.204;2023-06-26T01:32:18;23.90;56.60
49132;DHT22;35149;51.196;6.204;2023-06-26T01:34:47;23.90;56.30
49132;DHT22;35149;51.196;6.204;2023-06-26T01:37:13;23.90;55.50
49132;DHT22;35149;51.196;6.204;2023-06-26T01:39:40;23.90;55.90
49132;DHT22;35149;51.196;6.204;2023-06-26T01:42:12;24.00;55.70
49132;DHT22;35149;51.196;6.204;2023-06-26T01:44:45;24.00;55.40
49132;DHT22;35149;51.196;6.204;2023-06-26T01:47:16;24.10;55.10
49132;DHT22;35149;51.196;6.204;2023-06-26T01:50:02;24.20;54.80
49132;DHT22;35149;51.196;6.204;2023-06-26T01:53:13;24.30;54.30
49132;DHT22;35149;51.196;6.204;2023-06-26T01:55:51;24.40;54.20
49132;DHT22;35149;51.196;6.204;2023-06-26T01:58:21;24.50;53.90
49132;DHT22;35149;51.196;6.204;2023-06-26T02:00:59;24.50;53.80
49132;DHT22;35149;51.196;6.204;2023-06-26T02:03:35;24.60;53.40
49132;DHT22;35149;51.196;6.204;2023-06-26T02:06:04;24.70;53.20
49132;DHT22;35149;51.196;6.204;2023-06-26T02:08:32;24.80;53.20
49132;DHT22;35149;51.196;6.204;2023-06-26T02:10:59;24.80;53.00
49132;DHT22;35149;51.196;6.204;2023-06-26T02:13:25;24.80;52.90
49132;DHT22;35149;51.196;6.204;2023-06-26T02:15:53;24.90;53.40
49132;DHT22;35149;51.196;6.204;2023-06-26T02:18:22;24.90;53.00
49132;DHT22;35149;51.196;6.204;2023-06-26T02:20:53;25.00;52.80
49132;DHT22;35149;51.196;6.204;2023-06-26T02:23:21;25.00;52.90
49132;DHT22;35149;51.196;6.204;2023-06-26T02:25:47;25.00;52.90
49132;DHT22;35149;51.196;6.204;2023-06-26T02:28:19;25.00;52.80
49132;DHT22;35149;51.196;6.204;2023-06-26T02:30:45;25.00;53.00
49132;DHT22;35149;51.196;6.204;2023-06-26T02:33:16;25.00;53.00
49132;DHT22;35149;51.196;6.204;2023-06-26T02:35:48;25.10;53.20
49132;DHT22;35149;51.196;6.204;2023-06-26T02:38:20;25.00;53.00
49132;DHT22;35149;51.196;6.204;2023-06-26T02:40:47;25.00;53.10
49132;DHT22;35149;51.196;6.204;2023-06-26T02:43:15;25.00;53.00
49132;DHT22;35149;51.196;6.204;2023-06-26T02:45:47;25.00;53.10
49132;DHT22;35149;51.196;6.204;2023-06-26T02:48:15;24.90;53.30
49132;DHT22;35149;51.196;6.204;2023-06-26T02:50:44;24.90;53.20
49132;DHT22;35149;51.196;6.204;2023-06-26T02:53:17;24.90;53.30
49132;DHT22;35149;51.196;6.204;2023-06-26T02:55:45;24.90;53.40
49132;DHT22;35149;51.196;6.204;2023-06-26T02:58:14;24.90;53.40
49132;DHT22;35149;51.196;6.204;2023-06-26T03:00:46;24.80;53.40
49132;DHT22;35149;51.196;6.204;2023-06-26T03:03:18;24.80;53.70
49132;DHT22;35149;51.196;6.204;2023-06-26T03:05:46;24.80;53.50
49132;DHT22;35149;51.196;6.204;2023-06-26T03:08:13;24.70;53.60
49132;DHT22;35149;51.196;6.204;2023-06-26T03:10:39;24.70;53.60
49132;DHT22;35149;51.196;6.204;2023-06-26T03:13:07;24.70;53.40
49132;DHT22;35149;51.196;6.204;2023-06-26T03:15:34;24.60;53.20
49132;DHT22;35149;51.196;6.204;2023-06-26T03:18:01;24.60;53.10
49132;DHT22;35149;51.196;6.204;2023-06-26T03:20:28;24.60;52.90
49132;DHT22;35149;51.196;6.204;2023-06-26T03:22:57;24.50;52.90
49132;DHT22;35149;51.196;6.204;2023-06-26T03:25:28;24.50;52.90
49132;DHT22;35149;51.196;6.204;2023-06-26T03:28:19;24.50;53.00
49132;DHT22;35149;51.196;6.204;2023-06-26T03:30:48;24.50;53.00
49132;DHT22;35149;51.196;6.204;2023-06-26T03:33:18;24.40;53.10
49132;DHT22;35149;51.196;6.204;2023-06-26T03:35:45;24.40;53.10
49132;DHT22;35149;51.196;6.204;2023-06-26T03:38:13;24.40;53.20
49132;DHT22;35149;51.196;6.204;2023-06-26T03:40:43;24.40;53.40
49132;DHT22;35149;51.196;6.204;2023-06-26T03:43:10;24.40;53.30
49132;DHT22;35149;51.196;6.204;2023-06-26T03:46:10;24.30;53.30
49132;DHT22;35149;51.196;6.204;2023-06-26T03:48:39;24.30;53.10
49132;DHT22;35149;51.196;6.204;2023-06-26T03:51:08;24.30;53.10
49132;DHT22;35149;51.196;6.204;2023-06-26T03:53:37;24.30;53.10
49132;DHT22;35149;51.196;6.204;2023-06-26T03:56:07;24.30;53.10
49132;DHT22;35149;51.196;6.204;2023-06-26T03:58:36;24.30;52.90
49132;DHT22;35149;51.196;6.204;2023-06-26T04:01:03;24.20;52.80
49132;DHT22;35149;51.196;6.204;2023-06-26T04:03:42;24.20;52.90
49132;DHT22;35149;51.196;6.204;2023-06-26T04:06:11;24.20;52.70
49132;DHT22;35149;51.196;6.204;2023-06-26T04:08:39;24.20;52.60
49132;DHT22;35149;51.196;6.204;2023-06-26T04:11:07;24.20;52.40
49132;DHT22;35149;51.196;6.204;2023-06-26T04:13:36;24.20;52.40
49132;DHT22;35149;51.196;6.204;2023-06-26T04:16:04;24.20;52.50
49132;DHT22;35149;51.196;6.204;2023-06-26T04:18:33;24.20;52.60
49132;DHT22;35149;51.196;6.204;2023-06-26T04:21:13;24.20;52.50
49132;DHT22;35149;51.196;6.204;2023-06-26T04:23:43;24.20;52.50
49132;DHT22;35149;51.196;6.204;2023-06-26T04:26:10;24.20;52.30
49132;DHT22;35149;51.196;6.204;2023-06-26T04:28:41;24.20;52.50
49132;DHT22;35149;51.196;6.204;2023-06-26T04:31:08;24.20;52.50
49132;DHT22;35149;51.196;6.204;2023-06-26T04:33:36;24.20;52.40
49132;DHT22;35149;51.196;6.204;2023-06-26T04:36:05;24.20;52.30
49132;DHT22;35149;51.196;6.204;2023-06-26T04:38:32;24.20;52.40
49132;DHT22;35149;51.196;6.204;2023-06-26T04:41:00;24.20;52.20
49132;DHT22;35149;51.196;6.204;2023-06-26T04:43:27;24.20;52.30
49132;DHT22;35149;51.196;6.204;2023-06-26T04:45:54;24.20;52.40
49132;DHT22;35149;51.196;6.204;2023-06-26T04:48:20;24.20;52.50
49132;DHT22;35149;51.196;6.204;2023-06-26T04:50:47;24.20;52.60
49132;DHT22;35149;51.196;6.204;2023-06-26T04:53:20;24.10;52.50
49132;DHT22;35149;51.196;6.204;2023-06-26T04:55:47;24.20;52.00
49132;DHT22;35149;51.196;6.204;2023-06-26T04:58:14;24.10;52.40
49132;DHT22;35149;51.196;6.204;2023-06-26T05:00:40;24.10;52.50
49132;DHT22;35149;51.196;6.204;2023-06-26T05:03:11;24.10;52.80
49132;DHT22;35149;51.196;6.204;2023-06-26T05:05:38;24.10;53.10
49132;DHT22;35149;51.196;6.204;2023-06-26T05:08:20;24.10;53.20
49132;DHT22;35149;51.196;6.204;2023-06-26T05:10:47;24.10;53.50
49132;DHT22;35149;51.196;6.204;2023-06-26T05:13:14;24.10;53.30
49132;DHT22;35149;51.196;6.204;2023-06-26T05:15:44;24.10;53.40
49132;DHT22;35149;51.196;6.204;2023-06-26T05:18:11;24.10;53.40
49132;DHT22;35149;51.196;6.204;2023-06-26T05:20:40;24.10;54.20
49132;DHT22;35149;51.196;6.204;2023-06-26T05:23:07;24.10;53.30
49132;DHT22;35149;51.196;6.204;2023-06-26T05:25:34;24.10;53.40
49132;DHT22;35149;51.196;6.204;2023-06-26T05:28:01;24.00;53.50
49132;DHT22;35149;51.196;6.204;2023-06-26T05:30:28;24.10;53.70
49132;DHT22;35149;51.196;6.204;2023-06-26T05:32:55;24.00;53.80
49132;DHT22;35149;51.196;6.204;2023-06-26T05:35:29;24.00;53.90
49132;DHT22;35149;51.196;6.204;2023-06-26T05:37:58;24.10;54.10
49132;DHT22;35149;51.196;6.204;2023-06-26T05:40:25;24.10;54.20
49132;DHT22;35149;51.196;6.204;2023-06-26T05:42:52;24.10;54.30
49132;DHT22;35149;51.196;6.204;2023-06-26T05:45:19;24.10;54.40
49132;DHT22;35149;51.196;6.204;2023-06-26T05:47:46;24.10;54.40
49132;DHT22;35149;51.196;6.204;2023-06-26T05:50:13;24.10;54.20
49132;DHT22;35149;51.196;6.204;2023-06-26T05:52:40;24.10;54.30
49132;DHT22;35149;51.196;6.204;2023-06-26T05:55:07;24.10;54.60
49132;DHT22;35149;51.196;6.204;2023-06-26T05:57:34;24.10;54.80
49132;DHT22;35149;51.196;6.204;2023-06-26T06:00:01;24.10;54.90
49132;DHT22;35149;51.196;6.204;2023-06-26T06:02:39;24.10;54.70
49132;DHT22;35149;51.196;6.204;2023-06-26T06:05:08;24.10;55.20
49132;DHT22;35149;51.196;6.204;2023-06-26T06:07:35;24.10;54.70
49132;DHT22;35149;51.196;6.204;2023-06-26T06:10:03;24.10;55.00
49132;DHT22;35149;51.196;6.204;2023-06-26T06:12:30;24.10;55.10
49132;DHT22;35149;51.196;6.204;2023-06-26T06:14:56;24.10;54.90
49132;DHT22;35149;51.196;6.204;2023-06-26T06:17:23;24.10;55.00
49132;DHT22;35149;51.196;6.204;2023-06-26T06:19:50;24.10;54.90
49132;DHT22;35149;51.196;6.204;2023-06-26T06:22:17;24.00;55.10
49132;DHT22;35149;51.196;6.204;2023-06-26T06:24:44;24.00;55.30
49132;DHT22;35149;51.196;6.204;2023-06-26T06:27:13;24.10;55.60
49132;DHT22;35149;51.196;6.204;2023-06-26T06:29:41;24.10;55.50
49132;DHT22;35149;51.196;6.204;2023-06-26T06:32:07;24.10;55.60
49132;DHT22;35149;51.196;6.204;2023-06-26T06:34:34;24.20;55.70
49132;DHT22;35149;51.196;6.204;2023-06-26T06:37:02;24.20;55.50
49132;DHT22;35149;51.196;6.204;2023-06-26T06:39:29;24.20;55.20
49132;DHT22;35149;51.196;6.204;2023-06-26T06:41:56;24.30;55.30
49132;DHT22;35149;51.196;6.204;2023-06-26T06:44:23;24.30;55.40
49132;DHT22;35149;51.196;6.204;2023-06-26T06:46:49;24.30;55.10
49132;DHT22;35149;51.196;6.204;2023-06-26T06:49:16;24.40;54.70
49132;DHT22;35149;51.196;6.204;2023-06-26T06:51:43;24.30;54.70
49132;DHT22;35149;51.196;6.204;2023-06-26T06:54:09;24.30;55.00
49132;DHT22;35149;51.196;6.204;2023-06-26T06:56:36;24.30;55.20
49132;DHT22;35149;51.196;6.204;2023-06-26T06:59:03;24.30;55.00
49132;DHT22;35149;51.196;6.204;2023-06-26T07:01:30;24.40;55.10
49132;DHT22;35149;51.196;6.204;2023-06-26T07:03:56;24.40;55.30
49132;DHT22;35149;51.196;6.204;2023-06-26T07:06:24;24.40;55.20
49132;DHT22;35149;51.196;6.204;2023-06-26T07:08:51;24.50;55.50
49132;DHT22;35149;51.196;6.204;2023-06-26T07:11:17;24.50;55.00
49132;DHT22;35149;51.196;6.204;2023-06-26T07:13:44;24.60;54.90
49132;DHT22;35149;51.196;6.204;2023-06-26T07:16:16;24.70;54.50
49132;DHT22;35149;51.196;6.204;2023-06-26T07:18:44;24.70;54.20
49132;DHT22;35149;51.196;6.204;2023-06-26T07:21:11;24.70;54.10
49132;DHT22;35149;51.196;6.204;2023-06-26T07:23:38;24.80;54.10
49132;DHT22;35149;51.196;6.204;2023-06-26T07:26:04;24.70;54.20
49132;DHT22;35149;51.196;6.204;2023-06-26T07:28:31;24.80;54.40
49132;DHT22;35149;51.196;6.204;2023-06-26T07:30:58;24.80;54.10
49132;DHT22;35149;51.196;6.204;2023-06-26T07:33:24;24.90;54.10
49132;DHT22;35149;51.196;6.204;2023-06-26T07:35:51;24.90;54.20
49132;DHT22;35149;51.196;6.204;2023-06-26T07:38:18;24.90;54.30
49132;DHT22;35149;51.196;6.204;2023-06-26T07:40:45;25.00;53.90
49132;DHT22;35149;51.196;6.204;2023-06-26T07:43:11;25.10;54.00
49132;DHT22;35149;51.196;6.204;2023-06-26T07:45:38;25.10;54.00
49132;DHT22;35149;51.196;6.204;2023-06-26T07:48:05;25.20;53.50
49132;DHT22;35149;51.196;6.204;2023-06-26T07:50:32;25.30;53.40
49132;DHT22;35149;51.196;6.204;2023-06-26T07:52:59;25.30;53.00
49132;DHT22;35149;51.196;6.204;2023-06-26T07:55:25;25.30;52.90
49132;DHT22;35149;51.196;6.204;2023-06-26T07:57:53;25.30;52.70
49132;DHT22;35149;51.196;6.204;2023-06-26T08:00:21;25.40;52.60
49132;DHT22;35149;51.196;6.204;2023-06-26T08:02:51;25.40;52.40
49132;DHT22;35149;51.196;6.204;2023-06-26T08:05:18;25.40;52.50
49132;DHT22;35149;51.196;6.204;2023-06-26T08:07:45;25.40;52.40
49132;DHT22;35149;51.196;6.204;2023-06-26T08:10:11;25.40;52.10
49132;DHT22;35149;51.196;6.204;2023-06-26T08:12:42;25.50;52.30
49132;DHT22;35149;51.196;6.204;2023-06-26T08:15:11;25.50;52.00
49132;DHT22;35149;51.196;6.204;2023-06-26T08:17:38;25.50;52.30
49132;DHT22;35149;51.196;6.204;2023-06-26T08:20:05;25.50;52.00
49132;DHT22;35149;51.196;6.204;2023-06-26T08:22:34;25.50;51.90
49132;DHT22;35149;51.196;6.204;2023-06-26T08:25:02;25.50;52.00
49132;DHT22;35149;51.196;6.204;2023-06-26T08:27:29;25.50;52.00
49132;DHT22;35149;51.196;6.204;2023-06-26T08:29:56;25.50;51.60
49132;DHT22;35149;51.196;6.204;2023-06-26T08:32:22;25.60;51.80
49132;DHT22;35149;51.196;6.204;2023-06-26T08:34:49;25.60;51.70
49132;DHT22;35149;51.196;6.204;2023-06-26T08:37:17;25.60;52.00
49132;DHT22;35149;51.196;6.204;2023-06-26T08:39:43;25.60;52.50
49132;DHT22;35149;51.196;6.204;2023-06-26T08:42:10;25.70;52.40
49132;DHT22;35149;51.196;6.204;2023-06-26T08:44:37;25.80;52.30
49132;DHT22;35149;51.196;6.204;2023-06-26T08:47:19;25.80;52.10
49132;DHT22;35149;51.196;6.204;2023-06-26T08:49:59;25.90;52.10
49132;DHT22;35149;51.196;6.204;2023-06-26T08:52:37;26.00;51.30
49132;DHT22;35149;51.196;6.204;2023-06-26T08:55:10;26.00;50.90
49132;DHT22;35149;51.196;6.204;2023-06-26T08:57:37;26.10;51.30
49132;DHT22;35149;51.196;6.204;2023-06-26T09:00:05;26.10;51.00
49132;DHT22;35149;51.196;6.204;2023-06-26T09:02:33;26.10;51.40
49132;DHT22;35149;51.196;6.204;2023-06-26T09:05:00;26.10;50.60
49132;DHT22;35149;51.196;6.204;2023-06-26T09:07:26;26.10;50.40
49132;DHT22;35149;51.196;6.204;2023-06-26T09:09:53;26.10;50.30
49132;DHT22;35149;51.196;6.204;2023-06-26T09:12:20;26.00;50.70
49132;DHT22;35149;51.196;6.204;2023-06-26T09:14:47;26.10;51.40
49132;DHT22;35149;51.196;6.204;2023-06-26T09:17:14;26.10;50.40
49132;DHT22;35149;51.196;6.204;2023-06-26T09:19:41;26.10;50.00
49132;DHT22;35149;51.196;6.204;2023-06-26T09:22:14;26.20;49.90
49132;DHT22;35149;51.196;6.204;2023-06-26T09:24:41;26.20;49.60
49132;DHT22;35149;51.196;6.204;2023-06-26T09:27:09;26.30;49.90
49132;DHT22;35149;51.196;6.204;2023-06-26T09:29:36;26.30;49.50
49132;DHT22;35149;51.196;6.204;2023-06-26T09:32:03;26.30;49.50
49132;DHT22;35149;51.196;6.204;2023-06-26T09:34:31;26.40;48.60
49132;DHT22;35149;51.196;6.204;2023-06-26T09:36:59;26.40;49.10
49132;DHT22;35149;51.196;6.204;2023-06-26T09:39:29;26.30;48.90
49132;DHT22;35149;51.196;6.204;2023-06-26T09:41:57;26.30;48.80
49132;DHT22;35149;51.196;6.204;2023-06-26T09:44:24;26.20;49.00
49132;DHT22;35149;51.196;6.204;2023-06-26T09:46:50;26.20;48.30
49132;DHT22;35149;51.196;6.204;2023-06-26T09:49:17;26.20;48.50
49132;DHT22;35149;51.196;6.204;2023-06-26T09:51:44;26.20;49.00
49132;DHT22;35149;51.196;6.204;2023-06-26T09:54:11;26.20;48.60
49132;DHT22;35149;51.196;6.204;2023-06-26T09:56:38;26.30;48.70
49132;DHT22;35149;51.196;6.204;2023-06-26T09:59:05;26.30;48.30
49132;DHT22;35149;51.196;6.204;2023-06-26T10:01:33;26.40;48.30
49132;DHT22;35149;51.196;6.204;2023-06-26T10:04:00;26.40;48.80
49132;DHT22;35149;51.196;6.204;2023-06-26T10:06:46;26.40;47.90
49132;DHT22;35149;51.196;6.204;2023-06-26T10:09:17;26.50;46.80
49132;DHT22;35149;51.196;6.204;2023-06-26T10:14:21;26.40;46.20
49132;DHT22;35149;51.196;6.204;2023-06-26T10:16:49;26.30;46.20
49132;DHT22;35149;51.196;6.204;2023-06-26T10:19:21;26.30;45.50
49132;DHT22;35149;51.196;6.204;2023-06-26T10:21:55;26.30;46.50
49132;DHT22;35149;51.196;6.204;2023-06-26T10:24:23;26.30;46.20
49132;DHT22;35149;51.196;6.204;2023-06-26T10:26:54;26.30;45.50
49132;DHT22;35149;51.196;6.204;2023-06-26T10:29:23;26.40;46.10
49132;DHT22;35149;51.196;6.204;2023-06-26T10:31:54;26.40;44.90
49132;DHT22;35149;51.196;6.204;2023-06-26T10:34:22;26.50;44.90
49132;DHT22;35149;51.196;6.204;2023-06-26T10:37:02;26.50;45.20
49132;DHT22;35149;51.196;6.204;2023-06-26T10:39:49;26.60;44.00
49132;DHT22;35149;51.196;6.204;2023-06-26T10:42:17;26.70;44.60
49132;DHT22;35149;51.196;6.204;2023-06-26T10:44:46;26.80;44.50
49132;DHT22;35149;51.196;6.204;2023-06-26T10:47:33;26.90;44.20
49132;DHT22;35149;51.196;6.204;2023-06-26T10:50:24;26.90;44.10
49132;DHT22;35149;51.196;6.204;2023-06-26T10:55:59;26.90;44.00
49132;DHT22;35149;51.196;6.204;2023-06-26T11:01:25;26.90;42.20
49132;DHT22;35149;51.196;6.204;2023-06-26T11:06:24;26.80;43.70
49132;DHT22;35149;51.196;6.204;2023-06-26T11:08:53;26.80;43.80
49132;DHT22;35149;51.196;6.204;2023-06-26T11:14:26;26.80;43.90
49132;DHT22;35149;51.196;6.204;2023-06-26T11:16:56;26.80;43.40
49132;DHT22;35149;51.196;6.204;2023-06-26T11:19:26;26.80;41.60
49132;DHT22;35149;51.196;6.204;2023-06-26T11:22:07;26.80;41.00
49132;DHT22;35149;51.196;6.204;2023-06-26T11:24:33;26.80;40.60
49132;DHT22;35149;51.196;6.204;2023-06-26T11:27:01;26.90;42.00
49132;DHT22;35149;51.196;6.204;2023-06-26T11:29:30;26.90;41.80
49132;DHT22;35149;51.196;6.204;2023-06-26T11:32:01;26.90;41.60
49132;DHT22;35149;51.196;6.204;2023-06-26T11:34:31;27.00;40.60
49132;DHT22;35149;51.196;6.204;2023-06-26T11:36:58;27.10;39.40
49132;DHT22;35149;51.196;6.204;2023-06-26T11:39:27;27.20;39.40
49132;DHT22;35149;51.196;6.204;2023-06-26T11:41:56;27.20;39.80
49132;DHT22;35149;51.196;6.204;2023-06-26T11:44:23;27.30;40.30
49132;DHT22;35149;51.196;6.204;2023-06-26T11:46:52;27.30;40.00
49132;DHT22;35149;51.196;6.204;2023-06-26T11:49:21;27.40;38.90
49132;DHT22;35149;51.196;6.204;2023-06-26T11:51:49;27.50;38.90
49132;DHT22;35149;51.196;6.204;2023-06-26T11:54:27;27.60;38.50
49132;DHT22;35149;51.196;6.204;2023-06-26T11:56:57;27.60;37.70
49132;DHT22;35149;51.196;6.204;2023-06-26T11:59:33;27.60;37.20
49132;DHT22;35149;51.196;6.204;2023-06-26T12:01:59;27.60;37.30
49132;DHT22;35149;51.196;6.204;2023-06-26T12:04:26;27.60;37.40
49132;DHT22;35149;51.196;6.204;2023-06-26T12:06:55;27.60;37.00
49132;DHT22;35149;51.196;6.204;2023-06-26T12:09:25;27.60;36.60
49132;DHT22;35149;51.196;6.204;2023-06-26T12:11:53;27.60;36.40
49132;DHT22;35149;51.196;6.204;2023-06-26T12:14:22;27.60;36.50
49132;DHT22;35149;51.196;6.204;2023-06-26T12:16:50;27.60;36.10
49132;DHT22;35149;51.196;6.204;2023-06-26T12:19:16;27.70;36.40
49132;DHT22;35149;51.196;6.204;2023-06-26T12:21:47;27.70;35.70
49132;DHT22;35149;51.196;6.204;2023-06-26T12:24:17;27.80;34.20
49132;DHT22;35149;51.196;6.204;2023-06-26T12:26:45;27.80;35.10
49132;DHT22;35149;51.196;6.204;2023-06-26T12:29:14;27.80;34.80
49132;DHT22;35149;51.196;6.204;2023-06-26T12:31:42;27.90;34.50
49132;DHT22;35149;51.196;6.204;2023-06-26T12:34:10;27.90;34.40
49132;DHT22;35149;51.196;6.204;2023-06-26T12:36:45;27.90;34.20
49132;DHT22;35149;51.196;6.204;2023-06-26T12:39:14;27.90;35.70
49132;DHT22;35149;51.196;6.204;2023-06-26T12:46:50;28.30;34.70
49132;DHT22;35149;51.196;6.204;2023-06-26T12:49:29;28.40;35.50
49132;DHT22;35149;51.196;6.204;2023-06-26T12:52:01;28.50;34.30
49132;DHT22;35149;51.196;6.204;2023-06-26T12:54:28;28.50;34.40
49132;DHT22;35149;51.196;6.204;2023-06-26T12:56:55;28.50;34.40
49132;DHT22;35149;51.196;6.204;2023-06-26T12:59:22;28.60;34.30
49132;DHT22;35149;51.196;6.204;2023-06-26T13:01:49;28.60;34.70
49132;DHT22;35149;51.196;6.204;2023-06-26T13:04:16;28.60;34.10
49132;DHT22;35149;51.196;6.204;2023-06-26T13:06:43;28.60;33.90
49132;DHT22;35149;51.196;6.204;2023-06-26T13:09:10;28.60;34.00
49132;DHT22;35149;51.196;6.204;2023-06-26T13:11:37;28.60;33.90
49132;DHT22;35149;51.196;6.204;2023-06-26T13:14:04;28.60;34.20
49132;DHT22;35149;51.196;6.204;2023-06-26T13:16:38;28.70;34.50
49132;DHT22;35149;51.196;6.204;2023-06-26T13:19:07;28.80;33.70
49132;DHT22;35149;51.196;6.204;2023-06-26T13:21:34;28.90;33.50
49132;DHT22;35149;51.196;6.204;2023-06-26T13:24:01;28.90;33.00
49132;DHT22;35149;51.196;6.204;2023-06-26T13:26:30;29.10;33.00
49132;DHT22;35149;51.196;6.204;2023-06-26T13:29:03;29.20;33.30
49132;DHT22;35149;51.196;6.204;2023-06-26T13:31:31;29.30;33.30
49132;DHT22;35149;51.196;6.204;2023-06-26T13:33:59;29.50;32.50
49132;DHT22;35149;51.196;6.204;2023-06-26T13:36:26;29.70;32.70
49132;DHT22;35149;51.196;6.204;2023-06-26T13:38:53;29.80;32.80
49132;DHT22;35149;51.196;6.204;2023-06-26T13:41:24;29.90;32.40
49132;DHT22;35149;51.196;6.204;2023-06-26T13:43:51;30.00;32.60
49132;DHT22;35149;51.196;6.204;2023-06-26T13:46:19;30.30;33.20
49132;DHT22;35149;51.196;6.204;2023-06-26T13:48:46;30.60;34.10
49132;DHT22;35149;51.196;6.204;2023-06-26T13:51:13;31.00;33.90
49132;DHT22;35149;51.196;6.204;2023-06-26T13:53:40;31.60;34.00
49132;DHT22;35149;51.196;6.204;2023-06-26T13:56:06;32.10;32.80
49132;DHT22;35149;51.196;6.204;2023-06-26T13:58:36;32.70;32.30
49132;DHT22;35149;51.196;6.204;2023-06-26T14:01:03;33.20;32.00
49132;DHT22;35149;51.196;6.204;2023-06-26T14:03:36;33.70;32.20
49132;DHT22;35149;51.196;6.204;2023-06-26T14:06:03;34.20;31.10
49132;DHT22;35149;51.196;6.204;2023-06-26T14:08:30;34.80;31.50
49132;DHT22;35149;51.196;6.204;2023-06-26T14:10:56;35.30;30.40
49132;DHT22;35149;51.196;6.204;2023-06-26T14:13:23;35.80;29.80
49132;DHT22;35149;51.196;6.204;2023-06-26T14:15:50;36.10;29.30
49132;DHT22;35149;51.196;6.204;2023-06-26T14:18:20;36.20;28.80
49132;DHT22;35149;51.196;6.204;2023-06-26T14:20:49;36.30;28.80
49132;DHT22;35149;51.196;6.204;2023-06-26T14:23:16;36.30;28.80
49132;DHT22;35149;51.196;6.204;2023-06-26T14:25:43;36.40;28.60
49132;DHT22;35149;51.196;6.204;2023-06-26T14:28:12;36.60;28.10
49132;DHT22;35149;51.196;6.204;2023-06-26T14:30:39;36.90;28.30
49132;DHT22;35149;51.196;6.204;2023-06-26T14:33:06;37.00;27.70
49132;DHT22;35149;51.196;6.204;2023-06-26T14:35:32;37.10;27.60
49132;DHT22;35149;51.196;6.204;2023-06-26T14:37:59;37.10;27.30
49132;DHT22;35149;51.196;6.204;2023-06-26T14:40:26;36.90;27.20
49132;DHT22;35149;51.196;6.204;2023-06-26T14:42:53;36.80;27.20
49132;DHT22;35149;51.196;6.204;2023-06-26T14:45:20;36.90;27.30
49132;DHT22;35149;51.196;6.204;2023-06-26T14:47:48;36.90;27.00
49132;DHT22;35149;51.196;6.204;2023-06-26T14:50:17;36.80;26.70
49132;DHT22;35149;51.196;6.204;2023-06-26T14:52:43;36.80;26.90
49132;DHT22;35149;51.196;6.204;2023-06-26T14:55:10;36.60;26.60
49132;DHT22;35149;51.196;6.204;2023-06-26T14:57:37;36.40;26.50
49132;DHT22;35149;51.196;6.204;2023-06-26T15:00:04;36.30;27.10
49132;DHT22;35149;51.196;6.204;2023-06-26T15:02:32;36.10;26.90
49132;DHT22;35149;51.196;6.204;2023-06-26T15:04:58;35.80;26.90
49132;DHT22;35149;51.196;6.204;2023-06-26T15:07:25;35.50;26.90
49132;DHT22;35149;51.196;6.204;2023-06-26T15:09:52;35.20;27.00
49132;DHT22;35149;51.196;6.204;2023-06-26T15:12:18;34.80;27.20
49132;DHT22;35149;51.196;6.204;2023-06-26T15:14:45;34.50;27.90
49132;DHT22;35149;51.196;6.204;2023-06-26T15:17:12;34.20;27.50
49132;DHT22;35149;51.196;6.204;2023-06-26T15:19:39;33.80;27.80
49132;DHT22;35149;51.196;6.204;2023-06-26T15:22:07;33.60;27.80
49132;DHT22;35149;51.196;6.204;2023-06-26T15:24:34;33.30;28.00
49132;DHT22;35149;51.196;6.204;2023-06-26T15:27:00;33.10;28.10
49132;DHT22;35149;51.196;6.204;2023-06-26T15:29:27;33.00;28.30
49132;DHT22;35149;51.196;6.204;2023-06-26T15:31:54;32.80;28.40
49132;DHT22;35149;51.196;6.204;2023-06-26T15:34:21;32.80;28.10
49132;DHT22;35149;51.196;6.204;2023-06-26T15:36:48;32.80;28.40
49132;DHT22;35149;51.196;6.204;2023-06-26T15:39:15;32.90;28.80
49132;DHT22;35149;51.196;6.204;2023-06-26T15:41:42;33.10;28.50
49132;DHT22;35149;51.196;6.204;2023-06-26T15:44:09;33.30;28.40
49132;DHT22;35149;51.196;6.204;2023-06-26T15:46:36;33.50;28.60
49132;DHT22;35149;51.196;6.204;2023-06-26T15:49:02;33.50;27.90
49132;DHT22;35149;51.196;6.204;2023-06-26T15:51:29;33.40;28.00
49132;DHT22;35149;51.196;6.204;2023-06-26T15:53:57;33.40;27.90
49132;DHT22;35149;51.196;6.204;2023-06-26T15:56:23;33.30;27.90
49132;DHT22;35149;51.196;6.204;2023-06-26T15:58:50;33.20;27.80
49132;DHT22;35149;51.196;6.204;2023-06-26T16:01:17;33.10;28.00